Time;durP1;ratioP1;P1;durP2;ratioP2;P2;SDS_P1;SDS_P2;PMS_P1;PMS_P2;Temp;Humidity;BMP_temperature;BMP_pressure;BME280_temperature;BME280_humidity;BME280_pressure;Samples;Min_cycle;Max_cycle;Signal;HPM_P1;HPM_P2
2022/06/07 00:02:04;;;;;;;11.55;7.63;;;564.00;2432.00;;;;;;5086105;28;20020;-76
2022/06/07 00:04:30;;;;;;;14.75;6.63;;;564.10;2432.00;;;;;;5070440;28;20024;-76
2022/06/07 00:06:55;;;;;;;11.35;7.28;;;564.00;2432.00;;;;;;5086659;28;20028;-76
2022/06/07 00:09:21;;;;;;;12.27;7.60;;;564.10;2432.00;;;;;;5086373;28;20027;-75
2022/06/07 00:11:47;;;;;;;10.68;7.88;;;563.90;2432.00;;;;;;5086624;28;20028;-76
2022/06/07 00:14:13;;;;;;;15.05;7.35;;;564.10;2432.00;;;;;;5086385;28;20032;-76
2022/06/07 00:16:39;;;;;;;15.18;7.45;;;564.10;2432.00;;;;;;5086455;28;20535;-76
2022/06/07 00:19:04;;;;;;;14.15;7.63;;;564.00;2432.00;;;;;;5073372;28;20028;-76
2022/06/07 00:21:30;;;;;;;11.50;7.93;;;563.90;2432.00;;;;;;5089110;28;20073;-76
2022/06/07 00:23:59;;;;;;;14.15;8.18;;;563.90;2432.00;;;;;;5086723;28;20073;-76
2022/06/07 00:26:25;;;;;;;14.07;8.43;;;564.00;2432.00;;;;;;5085460;28;20051;-75
2022/06/07 00:28:52;;;;;;;11.93;7.25;;;589.10;2432.00;;;;;;5085489;28;20028;-76
2022/06/07 00:31:17;;;;;;;20.67;9.70;;;563.90;2432.00;;;;;;5065876;28;20032;-76
2022/06/07 00:33:43;;;;;;;13.15;7.65;;;563.80;2432.00;;;;;;5064466;28;20030;-75
2022/06/07 00:36:09;;;;;;;9.70;7.55;;;563.70;2432.00;;;;;;5080487;28;20036;-76
2022/06/07 00:38:35;;;;;;;11.90;7.82;;;563.70;2432.00;;;;;;5080408;28;20020;-76
2022/06/07 00:41:03;;;;;;;10.95;6.93;;;563.80;2432.00;;;;;;5064397;28;20024;-75
2022/06/07 00:43:29;;;;;;;12.45;7.53;;;563.90;2432.00;;;;;;5066668;28;20116;-76
2022/06/07 00:45:57;;;;;;;11.35;7.25;;;563.60;2432.00;;;;;;5081323;28;20067;-76
2022/06/07 00:48:23;;;;;;;11.85;8.55;;;563.60;2432.00;;;;;;5064512;28;20084;-76
2022/06/07 00:50:54;;;;;;;10.20;7.25;;;563.50;2432.00;;;;;;5081278;28;20025;-76
2022/06/07 00:53:30;;;;;;;14.57;8.73;;;563.60;2432.00;;;;;;5062395;28;20111;-75
2022/06/07 00:55:56;;;;;;;10.88;7.45;;;563.30;2432.00;;;;;;5081155;28;20496;-76
2022/06/07 00:58:25;;;;;;;15.18;8.57;;;563.20;2432.00;;;;;;5079738;28;20041;-76
2022/06/07 01:00:53;;;;;;;11.27;7.68;;;538.50;2406.40;;;;;;5081728;28;20107;-76
2022/06/07 01:03:20;;;;;;;12.80;8.65;;;538.50;2406.40;;;;;;5065683;28;20027;-76
2022/06/07 01:05:51;;;;;;;14.60;8.57;;;538.40;2406.40;;;;;;5080341;28;20025;-76
2022/06/07 01:11:01;;;;;;;11.45;8.48;;;563.30;2432.00;;;;;;5082330;28;20038;-76
2022/06/07 01:13:32;;;;;;;13.32;8.32;;;563.50;2432.00;;;;;;5080363;28;20017;-76
2022/06/07 01:16:03;;;;;;;18.52;9.15;;;563.40;2432.00;;;;;;5080841;28;20799;-76
2022/06/07 01:18:31;;;;;;;14.98;8.23;;;563.20;2432.00;;;;;;5080424;28;20025;-76
2022/06/07 01:21:36;;;;;;;14.48;9.23;;;563.30;2432.00;;;;;;5065999;28;20099;-76
2022/06/07 01:24:03;;;;;;;11.43;8.23;;;563.30;2432.00;;;;;;5009636;28;20041;-76
2022/06/07 01:26:29;;;;;;;11.00;8.00;;;563.40;2432.00;;;;;;5019293;28;20527;-76
2022/06/07 01:28:55;;;;;;;11.93;8.95;;;563.50;2432.00;;;;;;5021859;28;20029;-76
2022/06/07 01:31:21;;;;;;;12.57;8.30;;;563.40;2432.00;;;;;;5028911;28;20069;-76
2022/06/07 01:33:47;;;;;;;11.07;8.00;;;563.40;2432.00;;;;;;5025968;28;20034;-76
2022/06/07 01:36:16;;;;;;;11.75;7.97;;;563.50;2432.00;;;;;;5027409;28;20025;-76
2022/06/07 01:38:45;;;;;;;13.52;8.82;;;563.50;2432.00;;;;;;5028748;28;20025;-76
2022/06/07 01:43:56;;;;;;;14.25;8.57;;;563.50;2432.00;;;;;;5027321;28;20028;-75
2022/06/07 01:46:22;;;;;;;11.77;8.27;;;563.50;2432.00;;;;;;5028823;28;20044;-75
2022/06/07 01:48:48;;;;;;;10.85;7.70;;;563.50;2432.00;;;;;;5028518;28;20021;-75
2022/06/07 01:51:16;;;;;;;12.23;8.57;;;563.60;2432.00;;;;;;5027814;28;20060;-76
2022/06/07 01:53:42;;;;;;;12.75;8.80;;;563.60;2432.00;;;;;;5032421;28;20036;-76
2022/06/07 01:56:11;;;;;;;12.75;9.00;;;563.50;2432.00;;;;;;5029154;28;20095;-76
2022/06/07 01:58:38;;;;;;;15.05;8.95;;;563.40;2432.00;;;;;;5040838;28;20095;-76
2022/06/07 02:01:04;;;;;;;12.15;9.02;;;563.20;2432.00;;;;;;5094186;28;20052;-75
2022/06/07 02:03:30;;;;;;;13.07;9.15;;;563.20;2432.00;;;;;;5094473;28;20052;-76
2022/06/07 02:06:08;;;;;;;17.80;10.27;;;563.20;2432.00;;;;;;5093643;28;20036;-76
2022/06/07 02:08:36;;;;;;;12.02;8.40;;;538.30;2406.40;;;;;;5084808;28;20020;-76
2022/06/07 02:11:11;;;;;;;13.32;8.88;;;538.30;2406.40;;;;;;5066359;28;20024;-76
2022/06/07 02:13:38;;;;;;;12.80;9.10;;;538.00;2406.40;;;;;;5084936;28;20508;-76
2022/06/07 02:16:04;;;;;;;12.50;7.82;;;537.80;2406.40;;;;;;5066713;28;20062;-76
2022/06/07 02:18:30;;;;;;;15.30;8.25;;;537.80;2406.40;;;;;;5084845;28;20123;-76
2022/06/07 02:20:57;;;;;;;11.95;7.72;;;537.60;2406.40;;;;;;5083550;28;20510;-76
2022/06/07 02:23:27;;;;;;;12.60;7.65;;;512.80;2380.80;;;;;;5064618;28;20428;-76
2022/06/07 02:25:56;;;;;;;13.30;8.35;;;512.80;2380.80;;;;;;5065987;28;20028;-76
2022/06/07 02:28:26;;;;;;;20.00;8.00;;;512.80;2380.80;;;;;;5065791;28;20032;-76
2022/06/07 02:30:52;;;;;;;10.50;8.13;;;512.70;2380.80;;;;;;5084881;28;20074;-76
2022/06/07 02:33:19;;;;;;;10.82;8.38;;;512.70;2380.80;;;;;;5065233;28;20059;-75
2022/06/07 02:35:45;;;;;;;11.55;8.02;;;512.80;2380.80;;;;;;5062703;28;20052;-76
2022/06/07 02:38:12;;;;;;;9.35;7.53;;;512.40;2380.80;;;;;;5084031;28;20436;-76
2022/06/07 02:40:38;;;;;;;14.18;8.18;;;;;;;;;;5082960;28;20024;-76
2022/06/07 02:43:05;;;;;;;15.00;9.18;;;512.30;2380.80;;;;;;5082426;28;20058;-76
2022/06/07 02:45:30;;;;;;;12.55;8.52;;;512.00;2380.80;;;;;;5093224;28;20036;-76
2022/06/07 02:47:56;;;;;;;12.32;9.45;;;487.20;2380.80;;;;;;5074758;28;20031;-76
2022/06/07 02:50:23;;;;;;;11.63;8.90;;;512.00;2380.80;;;;;;5093561;28;20016;-76
2022/06/07 02:52:49;;;;;;;13.10;9.57;;;512.30;2380.80;;;;;;5093483;28;20016;-76
2022/06/07 02:55:15;;;;;;;14.65;8.18;;;512.50;2380.80;;;;;;5081644;28;20066;-76
2022/06/07 02:57:41;;;;;;;16.00;8.50;;;512.50;2380.80;;;;;;5092986;28;20024;-76
2022/06/07 03:00:09;;;;;;;14.27;8.73;;;512.30;2380.80;;;;;;5093063;28;20097;-76
2022/06/07 03:02:35;;;;;;;10.68;8.13;;;512.10;2380.80;;;;;;5080655;28;20025;-76
2022/06/07 03:05:02;;;;;;;17.42;8.73;;;512.40;2380.80;;;;;;5083091;28;20389;-76
2022/06/07 03:07:27;;;;;;;21.83;10.57;;;512.30;2380.80;;;;;;5093045;28;20036;-76
2022/06/07 03:09:53;;;;;;;15.77;8.55;;;512.00;2380.80;;;;;;5080002;28;20486;-76
2022/06/07 03:12:19;;;;;;;11.50;8.30;;;487.30;2380.80;;;;;;5093434;28;20023;-76
2022/06/07 03:14:45;;;;;;;13.23;9.77;;;512.00;2380.80;;;;;;5081594;28;20020;-76
2022/06/07 03:17:10;;;;;;;14.02;8.98;;;487.20;2380.80;;;;;;5093123;28;20549;-76
2022/06/07 03:19:36;;;;;;;17.17;10.23;;;487.10;2380.80;;;;;;5082562;28;20119;-76
2022/06/07 03:22:02;;;;;;;13.52;9.65;;;487.10;2380.80;;;;;;5081902;28;20032;-76
2022/06/07 03:24:28;;;;;;;14.77;8.38;;;487.10;2380.80;;;;;;5092822;28;20028;-75
2022/06/07 03:26:54;;;;;;;18.35;9.55;;;487.00;2380.80;;;;;;5092759;28;20081;-76
2022/06/07 03:29:21;;;;;;;11.90;8.57;;;487.10;2380.80;;;;;;5092239;28;20032;-76
2022/06/07 03:31:46;;;;;;;12.70;8.43;;;487.10;2380.80;;;;;;5092438;28;20099;-76
2022/06/07 03:34:13;;;;;;;17.52;9.50;;;487.00;2380.80;;;;;;5081008;28;20058;-76
2022/06/07 03:36:39;;;;;;;12.85;8.20;;;486.80;2380.80;;;;;;5086042;28;20020;-76
2022/06/07 03:39:07;;;;;;;13.77;10.00;;;;;;;;;;5085420;28;20055;-75
2022/06/07 03:41:33;;;;;;;13.30;10.18;;;486.70;2380.80;;;;;;5062492;28;20602;-75
2022/06/07 03:43:59;;;;;;;14.80;9.77;;;486.90;2380.80;;;;;;5074579;28;20463;-77
2022/06/07 03:46:27;;;;;;;18.30;10.85;;;486.80;2380.80;;;;;;5066364;28;20029;-77
2022/06/07 03:48:53;;;;;;;14.65;11.05;;;486.70;2380.80;;;;;;5073093;28;20040;-77
2022/06/07 03:51:22;;;;;;;15.00;11.60;;;486.70;2380.80;;;;;;5079528;28;20020;-76
2022/06/07 03:53:48;;;;;;;17.10;12.70;;;486.80;2380.80;;;;;;5086027;28;20469;-76
2022/06/07 03:56:15;;;;;;;14.55;12.40;;;486.90;2380.80;;;;;;5086883;28;20016;-77
2022/06/07 03:58:41;;;;;;;20.20;12.98;;;487.00;2380.80;;;;;;5085780;28;20028;-77
2022/06/07 04:01:10;;;;;;;14.70;12.00;;;487.10;2380.80;;;;;;5079528;28;20071;-76
2022/06/07 04:03:36;;;;;;;17.17;12.82;;;487.20;2380.80;;;;;;5085064;28;20019;-77
2022/06/07 04:06:03;;;;;;;15.50;13.23;;;487.30;2380.80;;;;;;5087574;28;20405;-77
2022/06/07 04:08:30;;;;;;;20.30;13.70;;;512.10;2380.80;;;;;;5081337;28;20164;-77
2022/06/07 04:11:01;;;;;;;22.85;13.35;;;512.20;2380.80;;;;;;5087858;28;20016;-77
2022/06/07 04:13:29;;;;;;;18.77;14.52;;;512.30;2380.80;;;;;;5087114;28;20085;-77
2022/06/07 04:15:55;;;;;;;19.30;13.65;;;512.50;2380.80;;;;;;5060380;28;20020;-77
2022/06/07 04:18:21;;;;;;;19.15;13.23;;;512.60;2380.80;;;;;;5077936;28;20381;-77
2022/06/07 04:20:47;;;;;;;17.13;12.85;;;512.80;2380.80;;;;;;5071797;28;20028;-76
2022/06/07 04:23:19;;;;;;;20.90;12.90;;;537.60;2406.40;;;;;;5091966;28;20049;-77
2022/06/07 04:25:45;;;;;;;17.67;13.07;;;537.60;2406.40;;;;;;5079895;28;20051;-77
2022/06/07 04:28:12;;;;;;;16.70;13.57;;;537.80;2406.40;;;;;;5091792;28;20055;-76
2022/06/07 04:30:42;;;;;;;19.67;13.88;;;537.90;2406.40;;;;;;5091575;28;20490;-76
2022/06/07 04:33:08;;;;;;;17.38;12.88;;;537.80;2406.40;;;;;;5066798;28;20066;-76
2022/06/07 04:35:34;;;;;;;17.23;12.95;;;537.80;2406.40;;;;;;5086463;28;20055;-76
2022/06/07 04:38:00;;;;;;;18.05;13.10;;;537.80;2406.40;;;;;;5086537;28;20028;-76
2022/06/07 04:40:26;;;;;;;19.08;13.38;;;538.20;2406.40;;;;;;5087361;28;20051;-76
2022/06/07 04:42:52;;;;;;;26.38;14.65;;;538.00;2406.40;;;;;;5086944;28;20399;-75
2022/06/07 04:45:17;;;;;;;18.52;13.63;;;538.00;2406.40;;;;;;5075249;28;20113;-75
2022/06/07 04:47:45;;;;;;;17.17;13.73;;;538.00;2406.40;;;;;;5071058;28;20039;-75
2022/06/07 04:50:15;;;;;;;17.70;13.43;;;538.00;2406.40;;;;;;5081008;28;20047;-75
2022/06/07 04:52:43;;;;;;;17.50;13.45;;;538.10;2406.40;;;;;;5087021;28;20105;-78
2022/06/07 04:55:09;;;;;;;21.85;14.35;;;538.20;2406.40;;;;;;5070610;28;20027;-77
2022/06/07 04:57:36;;;;;;;17.73;12.48;;;538.30;2406.40;;;;;;5071676;28;20118;-76
2022/06/07 05:00:05;;;;;;;15.93;12.40;;;538.30;2406.40;;;;;;5067019;28;20055;-78
2022/06/07 05:02:31;;;;;;;17.02;12.82;;;538.40;2406.40;;;;;;5067001;28;20040;-77
2022/06/07 05:04:57;;;;;;;23.30;14.52;;;538.50;2406.40;;;;;;5072471;28;20024;-76
2022/06/07 05:07:22;;;;;;;18.75;13.50;;;538.50;2406.40;;;;;;5091347;28;20119;-76
2022/06/07 05:09:48;;;;;;;15.73;13.43;;;563.20;2432.00;;;;;;5079514;28;20103;-77
2022/06/07 05:12:15;;;;;;;16.95;13.93;;;563.30;2432.00;;;;;;5073845;28;20070;-76
2022/06/07 05:14:42;;;;;;;17.88;12.60;;;563.40;2432.00;;;;;;5091551;28;20024;-77
2022/06/07 05:17:09;;;;;;;22.73;13.02;;;563.70;2432.00;;;;;;5073475;28;20367;-75
2022/06/07 05:19:34;;;;;;;16.67;11.98;;;563.70;2432.00;;;;;;5101873;28;20027;-76
2022/06/07 05:22:02;;;;;;;14.95;12.07;;;563.80;2432.00;;;;;;5095632;28;20020;-76
2022/06/07 05:24:28;;;;;;;15.88;11.50;;;563.90;2432.00;;;;;;5091798;28;20028;-75
2022/06/07 05:26:57;;;;;;;17.08;11.15;;;564.00;2432.00;;;;;;5095113;28;20032;-75
2022/06/07 05:29:43;;;;;;;13.63;10.60;;;564.10;2432.00;;;;;;5095304;28;20044;-75
2022/06/07 05:32:08;;;;;;;14.90;10.65;;;588.80;2432.00;;;;;;5076934;28;20047;-75
2022/06/07 05:34:34;;;;;;;17.20;11.73;;;588.90;2432.00;;;;;;5095434;28;20029;-76
2022/06/07 05:37:00;;;;;;;18.55;11.73;;;589.00;2432.00;;;;;;5095206;28;20016;-76
2022/06/07 05:39:29;;;;;;;18.48;11.95;;;589.00;2432.00;;;;;;5076779;28;20063;-76
2022/06/07 05:41:56;;;;;;;18.85;12.93;;;589.00;2432.00;;;;;;5076902;28;20082;-77
2022/06/07 05:44:23;;;;;;;16.33;12.13;;;588.90;2432.00;;;;;;5070974;28;20059;-75
2022/06/07 05:46:49;;;;;;;18.65;14.10;;;589.00;2432.00;;;;;;5077600;28;20032;-78
2022/06/07 05:49:16;;;;;;;23.13;15.43;;;588.90;2432.00;;;;;;5094657;28;20016;-77
2022/06/07 05:51:42;;;;;;;24.30;15.05;;;589.00;2432.00;;;;;;5087477;28;20020;-78
2022/06/07 05:54:11;;;;;;;21.52;16.27;;;589.10;2432.00;;;;;;5098567;28;20107;-77
2022/06/07 05:56:36;;;;;;;18.77;14.73;;;589.00;2432.00;;;;;;5076718;28;20027;-76
2022/06/07 05:59:05;;;;;;;23.02;15.07;;;589.00;2432.00;;;;;;5076211;28;20031;-77
2022/06/07 06:01:32;;;;;;;16.73;13.50;;;589.10;2432.00;;;;;;5094935;28;20109;-77
2022/06/07 06:03:58;;;;;;;18.15;14.13;;;589.10;2432.00;;;;;;5094963;28;20032;-78
2022/06/07 06:06:24;;;;;;;16.52;13.80;;;589.20;2432.00;;;;;;5076515;28;20047;-79
2022/06/07 06:11:35;;;;;;;16.95;13.27;;;589.40;2432.00;;;;;;5081248;28;20031;-79
2022/06/07 06:14:01;;;;;;;23.58;13.98;;;589.50;2432.00;;;;;;5077097;28;20016;-80
2022/06/07 06:16:27;;;;;;;16.92;13.18;;;589.60;2432.00;;;;;;5076703;28;20066;-79
2022/06/07 06:18:58;;;;;;;21.58;14.15;;;589.70;2432.00;;;;;;5076658;28;20025;-79
2022/06/07 06:21:27;;;;;;;18.35;13.35;;;589.70;2432.00;;;;;;5077070;28;20024;-80
2022/06/07 06:23:56;;;;;;;17.15;13.10;;;614.40;2432.00;;;;;;5077163;28;20070;-80
2022/06/07 06:26:22;;;;;;;17.75;13.45;;;614.40;2432.00;;;;;;5076940;28;20506;-79
2022/06/07 06:28:48;;;;;;;23.27;13.23;;;614.60;2432.00;;;;;;5084344;28;20134;-78
2022/06/07 06:31:15;;;;;;;16.23;13.00;;;614.60;2432.00;;;;;;5082933;28;20118;-79
2022/06/07 06:33:46;;;;;;;16.52;12.02;;;614.80;2432.00;;;;;;5094579;28;20067;-79
2022/06/07 06:36:16;;;;;;;17.90;11.50;;;614.80;2432.00;;;;;;5076412;28;20024;-79
2022/06/07 06:38:45;;;;;;;15.27;11.43;;;614.90;2432.00;;;;;;5075824;28;20069;-78
2022/06/07 06:41:18;;;;;;;14.00;10.73;;;615.00;2432.00;;;;;;5076043;28;20394;-79
2022/06/07 06:43:44;;;;;;;16.83;10.65;;;615.10;2432.00;;;;;;5076259;28;20114;-79
2022/06/07 06:46:14;;;;;;;17.92;10.30;;;615.10;2432.00;;;;;;5090189;28;20032;-79
2022/06/07 06:48:40;;;;;;;19.33;16.45;;;615.20;2432.00;;;;;;5076202;28;20035;-78
2022/06/07 06:51:10;;;;;;;12.80;10.30;;;615.20;2432.00;;;;;;5094728;28;20059;-78
2022/06/07 06:53:37;;;;;;;12.85;10.95;;;640.40;2432.00;;;;;;5114230;28;20024;-79
2022/06/07 06:56:03;;;;;;;13.38;10.15;;;640.00;2432.00;;;;;;5082302;28;20024;-80
2022/06/07 06:58:29;;;;;;;12.98;9.52;;;640.20;2432.00;;;;;;5075997;28;20470;-80
2022/06/07 07:01:10;;;;;;;12.68;9.82;;;640.30;2432.00;;;;;;5076450;28;20028;-78
2022/06/07 07:03:37;;;;;;;12.68;9.63;;;640.40;2432.00;;;;;;5076526;28;20485;-79
2022/06/07 07:06:05;;;;;;;13.30;9.27;;;640.50;2432.00;;;;;;5076118;28;20036;-80
2022/06/07 07:08:32;;;;;;;13.65;8.77;;;640.60;2432.00;;;;;;5075463;28;20016;-77
2022/06/07 07:11:17;;;;;;;13.27;9.65;;;640.70;2432.00;;;;;;5093608;28;20486;-78
2022/06/07 07:13:45;;;;;;;14.18;9.02;;;640.80;2432.00;;;;;;5068522;28;20036;-78
2022/06/07 07:16:14;;;;;;;31.42;10.00;;;640.90;2432.00;;;;;;5081493;28;20016;-76
2022/06/07 07:18:40;;;;;;;14.10;9.63;;;640.90;2432.00;;;;;;5082910;28;20031;-79
2022/06/07 07:21:10;;;;;;;12.10;8.35;;;665.70;2432.00;;;;;;5063845;28;20020;-76
2022/06/07 07:23:36;;;;;;;13.35;9.13;;;665.70;2432.00;;;;;;5066515;28;20044;-77
2022/06/07 07:26:08;;;;;;;13.55;9.77;;;665.80;2432.00;;;;;;5081939;28;20020;-77
2022/06/07 07:28:35;;;;;;;15.85;10.20;;;665.90;2432.00;;;;;;5061281;28;20115;-78
2022/06/07 07:31:04;;;;;;;10.20;8.80;;;666.10;2432.00;;;;;;5068431;28;20043;-78
2022/06/07 07:33:30;;;;;;;13.18;9.10;;;666.20;2432.00;;;;;;5065665;28;20031;-77
2022/06/07 07:35:56;;;;;;;11.27;8.98;;;666.20;2432.00;;;;;;5064000;28;20137;-83
2022/06/07 07:38:24;;;;;;;10.93;9.48;;;666.30;2432.00;;;;;;5065678;28;20103;-79
2022/06/07 07:40:51;;;;;;;12.05;9.80;;;666.30;2432.00;;;;;;5067783;28;20063;-77
2022/06/07 07:43:17;;;;;;;14.40;9.18;;;666.30;2432.00;;;;;;5081636;28;20028;-77
2022/06/07 07:45:43;;;;;;;15.82;9.23;;;666.50;2432.00;;;;;;5065729;28;20047;-76
2022/06/07 07:48:10;;;;;;;14.50;9.88;;;666.40;2432.00;;;;;;5067780;28;20029;-77
2022/06/07 07:50:38;;;;;;;13.07;7.95;;;691.20;2432.00;;;;;;5062959;28;20028;-76
2022/06/07 07:53:05;;;;;;;13.27;9.10;;;691.30;2304.00;;;;;;5065970;28;20027;-75
2022/06/07 07:55:31;;;;;;;14.73;8.77;;;691.30;2432.00;;;;;;5082209;28;20070;-82
2022/06/07 07:57:57;;;;;;;17.70;8.88;;;691.40;2355.20;;;;;;5064219;28;20477;-77
2022/06/07 08:00:23;;;;;;;11.15;8.57;;;691.50;2432.00;;;;;;5052747;28;20028;-77
2022/06/07 08:02:49;;;;;;;11.10;8.55;;;691.60;2406.40;;;;;;5073738;28;20027;-76
2022/06/07 08:05:15;;;;;;;11.48;8.52;;;691.60;2432.00;;;;;;5092632;28;20028;-77
2022/06/07 08:07:41;;;;;;;11.77;8.15;;;691.80;2432.00;;;;;;5073975;28;20048;-76
2022/06/07 08:10:07;;;;;;;16.08;8.60;;;691.80;2406.40;;;;;;5074394;28;20028;-76
2022/06/07 08:12:33;;;;;;;18.85;8.95;;;691.80;2329.60;;;;;;5074437;28;20043;-77
2022/06/07 08:14:59;;;;;;;10.38;8.35;;;691.90;2432.00;;;;;;5074361;28;20094;-76
2022/06/07 08:17:26;;;;;;;14.43;9.50;;;692.00;2406.40;;;;;;5091938;28;20103;-76
2022/06/07 08:19:53;;;;;;;9.20;7.68;;;692.00;2329.60;;;;;;5092193;28;20032;-76
2022/06/07 08:22:22;;;;;;;13.32;8.93;;;692.10;2252.80;;;;;;5073916;28;20428;-77
2022/06/07 08:24:48;;;;;;;9.20;7.90;;;692.10;2278.40;;;;;;5074417;28;20025;-76
2022/06/07 08:27:15;;;;;;;8.50;7.47;;;692.00;2278.40;;;;;;5085666;28;20513;-75
2022/06/07 08:29:41;;;;;;;12.02;9.15;;;692.10;2252.80;;;;;;5066896;28;20048;-76
2022/06/07 08:32:08;;;;;;;14.25;8.07;;;692.10;2304.00;;;;;;5081181;28;20020;-76
2022/06/07 08:37:34;;;;;;;9.98;7.03;;;716.90;2227.20;;;;;;5078038;28;20452;-76
2022/06/07 08:40:02;;;;;;;8.93;7.55;;;717.00;2176.00;;;;;;5075703;28;20043;-76
2022/06/07 08:42:37;;;;;;;10.60;7.30;;;717.10;2150.40;;;;;;5073754;28;20027;-76
2022/06/07 08:45:34;;;;;;;9.73;7.55;;;717.10;2124.80;;;;;;5069081;28;20099;-76
2022/06/07 08:48:04;;;;;;;8.75;7.55;;;717.10;2124.80;;;;;;5076180;28;20036;-76
2022/06/07 08:50:32;;;;;;;7.82;5.60;;;717.10;2124.80;;;;;;5073757;28;20031;-76
2022/06/07 08:53:02;;;;;;;9.70;6.13;;;717.10;1996.80;;;;;;5073718;28;20046;-76
2022/06/07 08:55:34;;;;;;;13.07;6.80;;;717.10;1971.20;;;;;;5091816;28;20020;-77
2022/06/07 08:58:11;;;;;;;10.38;7.65;;;717.10;2073.60;;;;;;5071028;28;20111;-76
2022/06/07 09:00:40;;;;;;;11.95;7.07;;;717.20;2099.20;;;;;;5072139;28;20021;-76
2022/06/07 09:04:02;;;;;;;12.05;7.43;;;717.30;2099.20;;;;;;5077769;28;20071;-77
2022/06/07 09:06:35;;;;;;;8.73;6.93;;;717.30;2022.40;;;;;;5011953;28;20105;-76
2022/06/07 09:09:03;;;;;;;12.88;6.95;;;717.50;1996.80;;;;;;4997021;28;20053;-76
2022/06/07 09:12:14;;;;;;;11.75;7.88;;;717.50;1996.80;;;;;;4997269;28;20033;-76
2022/06/07 09:14:45;;;;;;;13.80;7.95;;;717.50;2048.00;;;;;;5010501;28;20073;-76
2022/06/07 09:17:32;;;;;;;12.68;7.35;;;717.50;2073.60;;;;;;4999445;28;20058;-76
2022/06/07 09:19:58;;;;;;;10.23;7.28;;;717.70;2099.20;;;;;;5012288;28;20062;-76
2022/06/07 09:22:40;;;;;;;11.93;7.63;;;717.50;2073.60;;;;;;4996685;28;20029;-76
2022/06/07 09:25:17;;;;;;;10.02;7.22;;;717.70;1996.80;;;;;;4994815;28;20021;-77
2022/06/07 09:27:45;;;;;;;16.45;8.07;;;742.40;2099.20;;;;;;4993404;28;20489;-77
2022/06/07 09:30:24;;;;;;;11.75;7.30;;;742.60;2201.60;;;;;;4986625;28;20045;-78
2022/06/07 09:32:51;;;;;;;10.82;7.35;;;742.50;2099.20;;;;;;4996724;28;20021;-78
2022/06/07 09:35:20;;;;;;;11.75;8.13;;;742.60;2022.40;;;;;;4993790;28;20026;-76
2022/06/07 09:37:54;;;;;;;10.68;7.50;;;742.80;2099.20;;;;;;4992931;28;20108;-77
2022/06/07 09:40:30;;;;;;;10.75;6.47;;;742.90;1920.00;;;;;;5054943;28;20028;-78
2022/06/07 09:43:11;;;;;;;10.30;7.07;;;743.00;1920.00;;;;;;5102321;28;20138;-78
2022/06/07 09:45:58;;;;;;;10.35;6.43;;;743.10;1843.20;;;;;;5094335;28;20050;-78
2022/06/07 09:48:29;;;;;;;9.23;6.78;;;743.30;1843.20;;;;;;5092215;28;20020;-78
2022/06/07 09:50:57;;;;;;;12.10;6.75;;;743.30;1817.60;;;;;;5084764;28;20035;-78
2022/06/07 09:53:23;;;;;;;9.50;6.80;;;768.00;1868.80;;;;;;5084978;28;20425;-78
2022/06/07 09:56:15;;;;;;;10.05;6.57;;;768.30;1792.00;;;;;;5085399;28;20358;-79
2022/06/07 09:58:57;;;;;;;11.73;5.70;;;768.40;1740.80;;;;;;5067613;28;20044;-79
2022/06/07 10:01:44;;;;;;;10.05;6.03;;;768.40;1715.20;;;;;;5075666;28;20062;-79
2022/06/07 10:04:17;;;;;;;12.02;6.35;;;768.40;1715.20;;;;;;5075252;28;20062;-79
2022/06/07 10:06:59;;;;;;;8.45;5.38;;;768.50;1689.60;;;;;;5075714;28;20031;-80
2022/06/07 10:09:47;;;;;;;7.80;5.82;;;768.60;1689.60;;;;;;5086916;28;20378;-80
2022/06/07 10:12:22;;;;;;;7.38;5.38;;;768.70;1689.60;;;;;;5064513;28;20059;-79
2022/06/07 10:15:20;;;;;;;10.73;5.75;;;768.60;1638.40;;;;;;5088741;28;20039;-78
2022/06/07 10:18:01;;;;;;;8.73;5.70;;;768.20;1689.60;;;;;;5006576;28;20062;-78
2022/06/07 10:20:32;;;;;;;7.13;5.85;;;768.00;1715.20;;;;;;4996011;28;20038;-78
2022/06/07 10:23:34;;;;;;;8.05;5.07;;;768.40;1664.00;;;;;;5012945;28;20160;-81
2022/06/07 10:26:28;;;;;;;7.35;5.45;;;768.80;1638.40;;;;;;4996586;28;20026;-81
2022/06/07 10:29:02;;;;;;;7.13;4.85;;;768.90;1612.80;;;;;;5016892;28;20124;-80
2022/06/07 10:31:33;;;;;;;5.97;4.82;;;793.60;1612.80;;;;;;5015457;28;20037;-81
2022/06/07 10:34:08;;;;;;;8.30;4.03;;;793.80;1587.20;;;;;;5031114;28;20025;-80
2022/06/07 10:36:55;;;;;;;5.88;4.82;;;794.00;1536.00;;;;;;5014694;28;20025;-80
2022/06/07 10:39:32;;;;;;;10.52;5.25;;;794.10;1612.80;;;;;;5030667;28;20072;-81
2022/06/07 10:42:16;;;;;;;8.18;5.05;;;794.40;1587.20;;;;;;5030793;28;20074;-79
2022/06/07 10:45:14;;;;;;;11.68;5.40;;;794.50;1459.20;;;;;;5031723;28;20108;-79
2022/06/07 10:47:58;;;;;;;6.82;5.15;;;794.40;1561.60;;;;;;5031802;28;20045;-80
2022/06/07 10:50:34;;;;;;;9.15;4.95;;;794.50;1561.60;;;;;;5034398;28;20025;-84
2022/06/07 10:53:05;;;;;;;6.68;4.90;;;794.20;1510.40;;;;;;5031006;28;20551;-83
2022/06/07 10:55:42;;;;;;;10.73;4.82;;;794.20;1587.20;;;;;;5094725;28;20028;-81
2022/06/07 10:58:14;;;;;;;11.85;6.22;;;793.60;1612.80;;;;;;5090748;28;20029;-83
2022/06/07 11:00:46;;;;;;;8.02;5.85;;;793.70;1664.00;;;;;;5090849;28;20024;-81
2022/06/07 11:03:42;;;;;;;7.28;5.40;;;768.90;1638.40;;;;;;5094730;28;20028;-83
2022/06/07 11:09:38;;;;;;;6.95;6.03;;;768.70;1612.80;;;;;;4986613;28;20086;-83
2022/06/07 11:12:19;;;;;;;7.10;5.38;;;768.30;1638.40;;;;;;4989453;28;20035;-82
2022/06/07 11:15:00;;;;;;;10.70;5.57;;;768.80;1664.00;;;;;;4990319;28;20027;-81
2022/06/07 11:17:47;;;;;;;17.02;6.43;;;794.00;1612.80;;;;;;4991620;28;20050;-79
2022/06/07 11:20:19;;;;;;;8.57;6.25;;;794.20;1561.60;;;;;;4975341;28;20073;-82
2022/06/07 11:23:00;;;;;;;8.65;6.50;;;793.90;1561.60;;;;;;4975903;28;20030;-82
2022/06/07 11:25:34;;;;;;;8.93;6.20;;;768.70;1561.60;;;;;;4992202;28;20029;-81
2022/06/07 11:28:12;;;;;;;6.38;5.57;;;768.50;1561.60;;;;;;4991338;28;20468;-82
2022/06/07 11:30:37;;;;;;;7.68;5.32;;;768.30;1612.80;;;;;;4957829;28;20046;-82
2022/06/07 11:33:25;;;;;;;10.93;6.10;;;768.90;1587.20;;;;;;4972724;28;20039;-82
2022/06/07 11:36:04;;;;;;;11.82;5.85;;;793.80;1587.20;;;;;;4953229;28;20482;-82
2022/06/07 11:38:33;;;;;;;6.30;5.30;;;794.10;1561.60;;;;;;4965729;28;20042;-81
2022/06/07 11:41:37;;;;;;;11.40;5.43;;;793.90;1561.60;;;;;;5049205;28;20048;-84
2022/06/07 11:44:11;;;;;;;8.63;5.18;;;794.40;1510.40;;;;;;5058338;28;20115;-84
2022/06/07 11:47:00;;;;;;;8.70;5.72;;;794.50;1484.80;;;;;;5071190;28;20029;-85
2022/06/07 11:49:26;;;;;;;6.35;5.68;;;819.50;1510.40;;;;;;5045123;28;20025;-81
2022/06/07 11:51:56;;;;;;;15.13;6.18;;;819.40;1433.60;;;;;;5054250;28;20033;-82
2022/06/07 11:54:36;;;;;;;7.32;4.82;;;819.80;1433.60;;;;;;5064620;28;20018;-85
2022/06/07 11:57:25;;;;;;;9.52;5.43;;;820.10;1382.40;;;;;;5048134;28;20478;-84
2022/06/07 11:59:53;;;;;;;12.43;5.65;;;819.90;1408.00;;;;;;5041372;28;20044;-86
2022/06/07 12:02:27;;;;;;;15.65;6.15;;;820.00;1408.00;;;;;;5043267;28;20115;-84
2022/06/07 12:04:55;;;;;;;8.57;5.15;;;820.00;1433.60;;;;;;5048001;28;20025;-82
2022/06/07 12:07:39;;;;;;;6.25;5.65;;;819.70;1408.00;;;;;;5072539;28;20054;-87
2022/06/07 12:10:17;;;;;;;9.68;6.18;;;819.90;1408.00;;;;;;5062961;28;20114;-84
2022/06/07 12:12:50;;;;;;;8.02;6.60;;;819.90;1408.00;;;;;;5062918;28;20028;-81
2022/06/07 12:15:37;;;;;;;12.15;6.05;;;819.80;1382.40;;;;;;5050163;28;20086;-83
2022/06/07 12:18:21;;;;;;;8.75;5.38;;;819.90;1382.40;;;;;;5052462;28;20107;-85
2022/06/07 12:20:58;;;;;;;7.15;5.80;;;820.00;1382.40;;;;;;5045683;28;20482;-81
2022/06/07 12:23:37;;;;;;;10.45;7.07;;;844.80;1408.00;;;;;;5044547;28;20023;-80
2022/06/07 12:26:18;;;;;;;11.75;6.65;;;844.90;1408.00;;;;;;5059902;28;20043;-82
2022/06/07 12:28:55;;;;;;;12.98;6.60;;;844.90;1356.80;;;;;;5051192;28;20217;-82
2022/06/07 12:31:28;;;;;;;6.88;5.32;;;845.00;1356.80;;;;;;5064627;28;20048;-84
2022/06/07 12:33:57;;;;;;;7.20;6.15;;;844.90;1356.80;;;;;;5076490;28;20028;-83
2022/06/07 12:36:28;;;;;;;8.85;6.80;;;844.90;1356.80;;;;;;5073234;28;20024;-82
2022/06/07 12:38:57;;;;;;;7.43;5.80;;;844.80;1356.80;;;;;;5067743;28;20024;-82
2022/06/07 12:41:26;;;;;;;14.38;6.03;;;819.70;1382.40;;;;;;5076848;28;20028;-82